createdAt,value
2019-01-19T00:02:39.170Z,20.97
2019-01-19T00:05:46.991Z,19.20
2019-01-19T00:08:48.188Z,18.90
2019-01-19T00:11:55.979Z,18.60
2019-01-19T00:14:50.745Z,17.13
2019-01-19T00:17:52.670Z,16.67
2019-01-19T00:21:00.903Z,17.25
2019-01-19T00:24:09.446Z,17.30
2019-01-19T00:27:11.593Z,16.57
2019-01-19T00:30:19.780Z,16.30
2019-01-19T00:33:13.461Z,17.90
2019-01-19T00:36:21.260Z,17.93
2019-01-19T00:39:29.375Z,16.97
2019-01-19T00:42:37.234Z,17.23
2019-01-19T00:45:45.154Z,19.27
2019-01-19T00:48:53.290Z,19.53
2019-01-19T00:52:01.382Z,19.40
2019-01-19T00:54:53.479Z,20.00
2019-01-19T00:58:01.394Z,19.62
2019-01-19T01:00:38.081Z,19.27
2019-01-19T01:03:46.264Z,19.17
2019-01-19T01:06:50.433Z,20.87
2019-01-19T01:09:58.675Z,19.93
2019-01-19T01:13:06.483Z,19.77
2019-01-19T01:15:58.913Z,20.10
2019-01-19T01:19:07.002Z,20.67
2019-01-19T01:22:15.316Z,22.30
2019-01-19T01:28:40.098Z,20.93
2019-01-19T01:31:48.115Z,21.57
2019-01-19T01:34:46.106Z,21.40
2019-01-19T01:37:46.889Z,18.77
2019-01-19T01:40:55.039Z,20.93
2019-01-19T01:43:47.215Z,19.90
2019-01-19T01:46:55.175Z,20.63
2019-01-19T01:50:03.493Z,19.83
2019-01-19T01:53:11.290Z,18.27
2019-01-19T01:55:44.784Z,18.80
2019-01-19T01:58:52.874Z,19.30
2019-01-19T02:02:01.271Z,18.55
2019-01-19T02:05:09.206Z,21.33
2019-01-19T02:08:11.170Z,17.77
2019-01-19T02:11:05.086Z,15.83
2019-01-19T02:14:13.052Z,16.30
2019-01-19T02:16:54.150Z,17.90
2019-01-19T02:20:02.439Z,14.30
2019-01-19T02:23:10.355Z,14.40
2019-01-19T02:26:18.170Z,13.00
2019-01-19T02:29:19.639Z,13.38
2019-01-19T02:32:23.268Z,13.40
2019-01-19T02:35:20.554Z,13.67
2019-01-19T02:38:28.529Z,13.00
2019-01-19T02:41:36.292Z,12.13
2019-01-19T02:44:29.803Z,13.73
2019-01-19T02:47:37.892Z,12.35
2019-01-19T02:50:46.114Z,13.00
2019-01-19T02:53:54.003Z,12.60
2019-01-19T02:57:02.184Z,13.43
2019-01-19T03:00:10.042Z,12.43
2019-01-19T03:03:19.532Z,12.68
2019-01-19T03:06:27.347Z,12.60
2019-01-19T03:09:24.644Z,11.87
2019-01-19T03:12:32.808Z,11.95
2019-01-19T03:15:41.163Z,12.23
2019-01-19T03:18:38.263Z,12.13
2019-01-19T03:21:33.325Z,11.93
2019-01-19T03:24:41.206Z,11.43
2019-01-19T03:27:49.308Z,12.53
2019-01-19T03:30:54.445Z,12.03
2019-01-19T03:34:02.389Z,11.37
2019-01-19T03:36:42.754Z,11.20
2019-01-19T03:39:50.860Z,12.73
2019-01-19T03:42:58.921Z,12.00
2019-01-19T03:46:07.892Z,11.03
2019-01-19T03:49:03.308Z,11.97
2019-01-19T03:51:57.929Z,11.53
2019-01-19T03:54:50.715Z,11.30
2019-01-19T03:57:44.063Z,11.43
2019-01-19T04:00:35.171Z,11.90
2019-01-19T04:03:43.407Z,12.47
2019-01-19T04:06:51.353Z,11.63
2019-01-19T04:09:59.261Z,12.10
2019-01-19T04:13:07.145Z,11.50
2019-01-19T04:16:15.260Z,10.13
2019-01-19T04:19:23.034Z,11.03
2019-01-19T04:22:31.030Z,10.43
2019-01-19T04:25:26.618Z,10.20
2019-01-19T04:30:34.503Z,11.00
2019-01-19T04:33:04.877Z,11.23
2019-01-19T04:35:35.462Z,11.27
2019-01-19T04:38:05.820Z,11.43
2019-01-19T04:40:36.500Z,12.35
2019-01-19T04:43:06.814Z,10.50
2019-01-19T04:45:37.500Z,9.73
2019-01-19T04:48:07.812Z,10.80
2019-01-19T04:50:38.534Z,11.90
2019-01-19T04:53:08.915Z,13.10
2019-01-19T04:55:39.549Z,12.53
2019-01-19T04:58:09.898Z,11.33
2019-01-19T05:00:40.516Z,11.97
2019-01-19T05:03:10.889Z,11.63
2019-01-19T05:05:41.489Z,12.20
2019-01-19T05:08:11.811Z,11.57
2019-01-19T05:10:42.443Z,10.50
2019-01-19T05:13:12.759Z,10.80
2019-01-19T05:15:43.479Z,11.18
2019-01-19T05:18:13.832Z,10.47
2019-01-19T05:20:44.468Z,10.50
2019-01-19T05:23:14.813Z,11.83
2019-01-19T05:25:45.379Z,11.90
2019-01-19T05:28:15.683Z,12.07
2019-01-19T05:30:46.326Z,14.45
2019-01-19T05:33:16.997Z,16.30
2019-01-19T05:35:47.465Z,12.93
2019-01-19T05:38:17.804Z,13.43
2019-01-19T05:40:48.429Z,14.23
2019-01-19T05:43:18.745Z,16.30
2019-01-19T05:45:49.430Z,20.72
2019-01-19T05:48:19.766Z,20.90
2019-01-19T05:50:50.505Z,18.85
2019-01-19T05:53:20.857Z,17.23
2019-01-19T05:55:51.570Z,16.37
2019-01-19T05:58:21.889Z,16.83
2019-01-19T06:00:52.553Z,16.42
2019-01-19T06:03:22.895Z,15.47
2019-01-19T06:05:53.749Z,16.93
2019-01-19T06:08:24.667Z,16.70
2019-01-19T06:10:55.691Z,15.72
2019-01-19T06:13:26.274Z,15.20
2019-01-19T06:15:56.592Z,14.47
2019-01-19T06:26:19.581Z,10.60
2019-01-19T06:28:49.984Z,10.80
2019-01-19T06:31:20.664Z,11.10
2019-01-19T06:33:51.025Z,10.83
2019-01-19T06:36:21.622Z,9.55
2019-01-19T06:38:52.013Z,11.23
2019-01-19T06:41:22.668Z,10.60
2019-01-19T06:44:12.424Z,10.05
2019-01-19T06:46:42.897Z,10.13
2019-01-19T06:49:13.669Z,10.18
2019-01-19T06:51:44.561Z,10.63
2019-01-19T06:54:17.214Z,11.00
2019-01-19T06:56:47.614Z,10.97
2019-01-19T06:59:17.960Z,14.30
2019-01-19T07:01:48.532Z,14.07
2019-01-19T07:04:18.863Z,13.67
2019-01-19T07:06:49.639Z,11.60
2019-01-19T07:09:20.289Z,11.38
2019-01-19T07:11:50.972Z,11.13
2019-01-19T07:14:23.000Z,10.30
2019-01-19T07:16:53.584Z,10.50
2019-01-19T07:19:23.973Z,11.73
2019-01-19T07:21:54.511Z,11.77
2019-01-19T07:24:24.951Z,11.83
2019-01-19T07:26:55.576Z,11.35
2019-01-19T07:29:25.918Z,11.67
2019-01-19T07:31:56.629Z,10.63
2019-01-19T07:34:26.984Z,11.33
2019-01-19T07:36:57.534Z,10.77
2019-01-19T07:39:27.845Z,10.90
2019-01-19T07:41:58.447Z,11.48
2019-01-19T07:44:28.738Z,10.70
2019-01-19T07:49:50.598Z,11.20
2019-01-19T07:52:20.927Z,10.80
2019-01-19T07:54:51.751Z,11.05
2019-01-19T07:57:22.355Z,11.43
2019-01-19T07:59:52.786Z,12.00
2019-01-19T08:02:23.509Z,11.22
2019-01-19T08:04:53.921Z,12.13
2019-01-19T08:07:24.541Z,11.77
2019-01-19T08:09:54.902Z,12.20
2019-01-19T08:12:25.543Z,12.67
2019-01-19T08:14:55.913Z,12.20
2019-01-19T08:17:48.039Z,11.85
2019-01-19T08:20:18.687Z,13.50
2019-01-19T08:22:49.293Z,13.08
2019-01-19T08:25:19.660Z,13.90
2019-01-19T08:28:08.792Z,13.20
2019-01-19T08:30:40.606Z,20.80
2019-01-19T08:33:11.433Z,22.98
2019-01-19T08:35:50.797Z,19.50
2019-01-19T08:38:21.482Z,13.77
2019-01-19T08:40:51.900Z,15.60
2019-01-19T08:43:27.489Z,14.07
2019-01-19T08:45:57.755Z,13.77
2019-01-19T08:48:49.276Z,13.83
2019-01-19T08:51:19.735Z,12.20
2019-01-19T08:54:09.783Z,12.63
2019-01-19T08:56:40.521Z,14.17
2019-01-19T08:59:10.806Z,13.30
2019-01-19T09:01:41.495Z,13.87
2019-01-19T09:04:12.124Z,15.10
2019-01-19T09:06:43.945Z,15.50
2019-01-19T09:09:14.574Z,14.93
2019-01-19T09:11:44.870Z,15.63
2019-01-19T09:14:15.488Z,15.57
2019-01-19T09:16:48.019Z,15.37
2019-01-19T09:19:18.690Z,15.88
2019-01-19T09:21:49.815Z,14.98
2019-01-19T09:27:01.493Z,15.37
2019-01-19T09:29:32.064Z,15.20
2019-01-19T09:32:02.684Z,14.33
2019-01-19T09:34:34.132Z,14.93
2019-01-19T09:37:06.906Z,16.02
2019-01-19T09:39:37.413Z,17.10
2019-01-19T09:42:07.815Z,15.77
2019-01-19T09:44:38.438Z,16.07
2019-01-19T09:47:08.761Z,16.57
2019-01-19T09:49:39.445Z,16.70
2019-01-19T09:52:09.714Z,16.23
2019-01-19T09:54:40.425Z,18.75
2019-01-19T09:57:10.857Z,18.33
2019-01-19T09:59:41.481Z,17.50
2019-01-19T10:02:11.765Z,16.13
2019-01-19T10:04:42.385Z,16.10
2019-01-19T10:07:12.786Z,14.87
2019-01-19T10:09:43.330Z,13.87
2019-01-19T10:12:13.837Z,12.13
2019-01-19T10:14:44.596Z,13.33
2019-01-19T10:17:14.925Z,14.37
2019-01-19T10:19:45.604Z,14.63
2019-01-19T10:25:26.743Z,18.17
2019-01-19T10:27:57.363Z,18.42
2019-01-19T10:30:28.220Z,19.93
2019-01-19T10:32:58.706Z,13.17
2019-01-19T10:35:29.335Z,13.18
2019-01-19T10:37:59.678Z,15.03
2019-01-19T10:40:30.293Z,12.28
2019-01-19T10:43:01.034Z,13.27
2019-01-19T10:45:31.423Z,11.13
